sensor_id;sensor_type;location;lat;lon;timestamp;pressure;altitude;pressure_sealevel;temperature;humidity
6134;BME280;3098;42.678;23.364;2023-11-22T00:02:00;94081.44;;;5.32;100.00
6134;BME280;3098;42.678;23.364;2023-11-22T00:04:29;94307.28;;;6.69;100.00
6134;BME280;3098;42.678;23.364;2023-11-22T00:06:56;94205.25;;;6.12;100.00
6134;BME280;3098;42.678;23.364;2023-11-22T00:09:23;94184.44;;;5.74;100.00
6134;BME280;3098;42.678;23.364;2023-11-22T00:11:50;94294.28;;;6.59;100.00
6134;BME280;3098;42.678;23.364;2023-11-22T00:14:18;94279.75;;;6.62;100.00
6134;BME280;3098;42.678;23.364;2023-11-22T00:16:46;94269.53;;;6.60;100.00
6134;BME280;3098;42.678;23.364;2023-11-22T00:19:15;94043.75;;;5.22;100.00
6134;BME280;3098;42.678;23.364;2023-11-22T00:21:44;94286.59;;;6.85;100.00
6134;BME280;3098;42.678;23.364;2023-11-22T00:24:11;94197.81;;;6.27;100.00
6134;BME280;3098;42.678;23.364;2023-11-22T00:26:39;94281.41;;;6.93;100.00
6134;BME280;3098;42.678;23.364;2023-11-22T00:29:07;94253.97;;;6.72;100.00
6134;BME280;3098;42.678;23.364;2023-11-22T00:31:35;94220.00;;;6.49;100.00
6134;BME280;3098;42.678;23.364;2023-11-22T00:34:02;94202.75;;;6.43;100.00
6134;BME280;3098;42.678;23.364;2023-11-22T00:36:31;94104.94;;;5.64;100.00
6134;BME280;3098;42.678;23.364;2023-11-22T00:38:59;94276.91;;;6.94;100.00
6134;BME280;3098;42.678;23.364;2023-11-22T00:41:30;94305.59;;;6.95;100.00
6134;BME280;3098;42.678;23.364;2023-11-22T00:43:58;94073.97;;;5.61;100.00
6134;BME280;3098;42.678;23.364;2023-11-22T00:46:25;94300.63;;;6.94;100.00
6134;BME280;3098;42.678;23.364;2023-11-22T00:48:55;94280.16;;;6.91;100.00
6134;BME280;3098;42.678;23.364;2023-11-22T00:51:22;94305.31;;;6.97;100.00
6134;BME280;3098;42.678;23.364;2023-11-22T00:53:51;94159.53;;;6.08;100.00
6134;BME280;3098;42.678;23.364;2023-11-22T00:56:19;94158.59;;;6.04;100.00
6134;BME280;3098;42.678;23.364;2023-11-22T00:58:47;94204.19;;;6.49;100.00
6134;BME280;3098;42.678;23.364;2023-11-22T01:01:16;94256.59;;;6.72;100.00
6134;BME280;3098;42.678;23.364;2023-11-22T01:03:44;94241.38;;;6.69;100.00
6134;BME280;3098;42.678;23.364;2023-11-22T01:06:12;94123.22;;;5.96;100.00
6134;BME280;3098;42.678;23.364;2023-11-22T01:08:39;94245.34;;;6.58;100.00
6134;BME280;3098;42.678;23.364;2023-11-22T01:11:08;94274.88;;;6.91;100.00
6134;BME280;3098;42.678;23.364;2023-11-22T01:13:36;94265.13;;;6.91;100.00
6134;BME280;3098;42.678;23.364;2023-11-22T01:16:06;94186.28;;;6.37;100.00
6134;BME280;3098;42.678;23.364;2023-11-22T01:18:33;94136.88;;;5.98;100.00
6134;BME280;3098;42.678;23.364;2023-11-22T01:21:01;94258.34;;;6.99;100.00
6134;BME280;3098;42.678;23.364;2023-11-22T01:23:29;94216.63;;;6.79;100.00
6134;BME280;3098;42.678;23.364;2023-11-22T01:25:57;94245.75;;;6.96;100.00
6134;BME280;3098;42.678;23.364;2023-11-22T01:28:26;94253.31;;;6.89;100.00
6134;BME280;3098;42.678;23.364;2023-11-22T01:30:54;94254.91;;;6.99;100.00
6134;BME280;3098;42.678;23.364;2023-11-22T01:33:21;94253.91;;;7.08;100.00
6134;BME280;3098;42.678;23.364;2023-11-22T01:35:48;94255.63;;;7.13;100.00
6134;BME280;3098;42.678;23.364;2023-11-22T01:38:16;94164.13;;;6.60;100.00
6134;BME280;3098;42.678;23.364;2023-11-22T01:40:44;94200.81;;;6.79;100.00
6134;BME280;3098;42.678;23.364;2023-11-22T01:43:13;94226.09;;;7.02;100.00
6134;BME280;3098;42.678;23.364;2023-11-22T01:45:43;94229.69;;;7.06;100.00
6134;BME280;3098;42.678;23.364;2023-11-22T01:48:12;94043.63;;;5.77;100.00
6134;BME280;3098;42.678;23.364;2023-11-22T01:50:43;94231.31;;;6.93;100.00
6134;BME280;3098;42.678;23.364;2023-11-22T01:53:12;94224.25;;;7.03;100.00
6134;BME280;3098;42.678;23.364;2023-11-22T01:55:39;94222.25;;;7.08;100.00
6134;BME280;3098;42.678;23.364;2023-11-22T01:58:08;94227.66;;;7.03;100.00
6134;BME280;3098;42.678;23.364;2023-11-22T02:00:45;94219.56;;;7.00;100.00
6134;BME280;3098;42.678;23.364;2023-11-22T02:03:12;94237.75;;;7.10;100.00
6134;BME280;3098;42.678;23.364;2023-11-22T02:05:40;94222.25;;;7.08;100.00
6134;BME280;3098;42.678;23.364;2023-11-22T02:08:09;94189.91;;;6.94;100.00
6134;BME280;3098;42.678;23.364;2023-11-22T02:10:37;94142.16;;;6.43;100.00
6134;BME280;3098;42.678;23.364;2023-11-22T02:13:05;94106.88;;;6.21;100.00
6134;BME280;3098;42.678;23.364;2023-11-22T02:15:33;94006.47;;;5.56;100.00
6134;BME280;3098;42.678;23.364;2023-11-22T02:18:02;94148.88;;;6.49;100.00
6134;BME280;3098;42.678;23.364;2023-11-22T02:20:31;94221.09;;;6.92;100.00
6134;BME280;3098;42.678;23.364;2023-11-22T02:23:07;94054.91;;;5.91;100.00
6134;BME280;3098;42.678;23.364;2023-11-22T02:25:37;94186.59;;;6.80;100.00
6134;BME280;3098;42.678;23.364;2023-11-22T02:28:04;94147.06;;;6.58;100.00
6134;BME280;3098;42.678;23.364;2023-11-22T02:30:34;94211.47;;;6.96;100.00
6134;BME280;3098;42.678;23.364;2023-11-22T02:33:02;94224.38;;;6.98;100.00
6134;BME280;3098;42.678;23.364;2023-11-22T02:35:30;94224.66;;;6.96;100.00
6134;BME280;3098;42.678;23.364;2023-11-22T02:37:58;94220.03;;;7.02;100.00
6134;BME280;3098;42.678;23.364;2023-11-22T02:40:27;94190.00;;;6.80;100.00
6134;BME280;3098;42.678;23.364;2023-11-22T02:42:55;94159.75;;;6.56;100.00
6134;BME280;3098;42.678;23.364;2023-11-22T02:45:26;94224.97;;;6.94;100.00
6134;BME280;3098;42.678;23.364;2023-11-22T02:47:54;94228.81;;;6.88;100.00
6134;BME280;3098;42.678;23.364;2023-11-22T02:50:22;94215.09;;;6.78;100.00
6134;BME280;3098;42.678;23.364;2023-11-22T02:52:50;94217.00;;;6.86;100.00
6134;BME280;3098;42.678;23.364;2023-11-22T02:55:17;94146.41;;;6.52;100.00
6134;BME280;3098;42.678;23.364;2023-11-22T02:57:48;94128.47;;;6.32;100.00
6134;BME280;3098;42.678;23.364;2023-11-22T03:00:16;94219.78;;;6.81;100.00
6134;BME280;3098;42.678;23.364;2023-11-22T03:02:45;94174.31;;;6.53;100.00
6134;BME280;3098;42.678;23.364;2023-11-22T03:05:12;94018.56;;;5.57;100.00
6134;BME280;3098;42.678;23.364;2023-11-22T03:07:40;94226.34;;;6.92;100.00
6134;BME280;3098;42.678;23.364;2023-11-22T03:10:08;94182.31;;;6.70;100.00
6134;BME280;3098;42.678;23.364;2023-11-22T03:12:36;94210.16;;;6.85;100.00
6134;BME280;3098;42.678;23.364;2023-11-22T03:15:05;94222.63;;;6.93;100.00
6134;BME280;3098;42.678;23.364;2023-11-22T03:17:33;94081.47;;;6.03;100.00
6134;BME280;3098;42.678;23.364;2023-11-22T03:20:00;94227.47;;;7.00;100.00
6134;BME280;3098;42.678;23.364;2023-11-22T03:22:28;94107.16;;;6.20;100.00
6134;BME280;3098;42.678;23.364;2023-11-22T03:24:56;94225.16;;;6.98;100.00
6134;BME280;3098;42.678;23.364;2023-11-22T03:27:24;94240.28;;;6.92;100.00
6134;BME280;3098;42.678;23.364;2023-11-22T03:29:52;94210.59;;;6.78;100.00
6134;BME280;3098;42.678;23.364;2023-11-22T03:32:20;94236.97;;;7.01;100.00
6134;BME280;3098;42.678;23.364;2023-11-22T03:34:47;94206.94;;;6.88;100.00
6134;BME280;3098;42.678;23.364;2023-11-22T03:37:15;94234.47;;;7.04;100.00
6134;BME280;3098;42.678;23.364;2023-11-22T03:39:43;94243.63;;;7.07;100.00
6134;BME280;3098;42.678;23.364;2023-11-22T03:42:14;94227.00;;;6.98;100.00
6134;BME280;3098;42.678;23.364;2023-11-22T03:44:42;94217.06;;;6.94;100.00
6134;BME280;3098;42.678;23.364;2023-11-22T03:47:10;94135.97;;;6.47;100.00
6134;BME280;3098;42.678;23.364;2023-11-22T03:49:40;94178.63;;;6.71;100.00
6134;BME280;3098;42.678;23.364;2023-11-22T03:52:09;94224.09;;;7.08;100.00
6134;BME280;3098;42.678;23.364;2023-11-22T03:54:37;94193.56;;;6.84;100.00
6134;BME280;3098;42.678;23.364;2023-11-22T03:57:05;94165.50;;;6.80;100.00
6134;BME280;3098;42.678;23.364;2023-11-22T03:59:34;94083.50;;;6.06;100.00
6134;BME280;3098;42.678;23.364;2023-11-22T04:02:02;94219.88;;;6.98;100.00
6134;BME280;3098;42.678;23.364;2023-11-22T04:04:29;94082.78;;;6.14;100.00
6134;BME280;3098;42.678;23.364;2023-11-22T04:06:59;94228.31;;;7.09;100.00
6134;BME280;3098;42.678;23.364;2023-11-22T04:09:26;94152.94;;;6.55;100.00
6134;BME280;3098;42.678;23.364;2023-11-22T04:11:55;94239.00;;;7.04;100.00
6134;BME280;3098;42.678;23.364;2023-11-22T04:14:22;94143.09;;;6.24;100.00
6134;BME280;3098;42.678;23.364;2023-11-22T04:16:51;94011.59;;;5.39;100.00
6134;BME280;3098;42.678;23.364;2023-11-22T04:19:19;94065.84;;;5.71;100.00
6134;BME280;3098;42.678;23.364;2023-11-22T04:21:47;94248.88;;;6.98;100.00
6134;BME280;3098;42.678;23.364;2023-11-22T04:24:17;94204.72;;;6.59;100.00
6134;BME280;3098;42.678;23.364;2023-11-22T04:26:45;94138.00;;;6.06;100.00
6134;BME280;3098;42.678;23.364;2023-11-22T04:29:13;94215.72;;;6.61;100.00
6134;BME280;3098;42.678;23.364;2023-11-22T04:31:41;94250.22;;;6.95;100.00
6134;BME280;3098;42.678;23.364;2023-11-22T04:34:08;94279.94;;;7.10;100.00
6134;BME280;3098;42.678;23.364;2023-11-22T04:36:36;94232.91;;;6.59;100.00
6134;BME280;3098;42.678;23.364;2023-11-22T04:39:04;94275.72;;;7.00;100.00
6134;BME280;3098;42.678;23.364;2023-11-22T04:41:34;94252.81;;;6.87;100.00
6134;BME280;3098;42.678;23.364;2023-11-22T04:44:02;94235.94;;;6.88;100.00
6134;BME280;3098;42.678;23.364;2023-11-22T04:46:31;94233.88;;;6.85;100.00
6134;BME280;3098;42.678;23.364;2023-11-22T04:48:59;94273.75;;;7.06;100.00
6134;BME280;3098;42.678;23.364;2023-11-22T04:51:26;94258.06;;;7.01;100.00
6134;BME280;3098;42.678;23.364;2023-11-22T04:53:55;94285.72;;;7.12;100.00
6134;BME280;3098;42.678;23.364;2023-11-22T04:56:22;94290.16;;;7.03;100.00
6134;BME280;3098;42.678;23.364;2023-11-22T04:58:51;94218.63;;;6.73;100.00
6134;BME280;3098;42.678;23.364;2023-11-22T05:01:18;94191.22;;;6.38;100.00
6134;BME280;3098;42.678;23.364;2023-11-22T05:03:46;94174.25;;;6.09;100.00
6134;BME280;3098;42.678;23.364;2023-11-22T05:06:14;94322.34;;;7.13;100.00
6134;BME280;3098;42.678;23.364;2023-11-22T05:08:42;94277.38;;;6.74;100.00
6134;BME280;3098;42.678;23.364;2023-11-22T05:11:10;94316.22;;;7.04;100.00
6134;BME280;3098;42.678;23.364;2023-11-22T05:13:37;94334.72;;;7.13;100.00
6134;BME280;3098;42.678;23.364;2023-11-22T05:16:07;94288.59;;;6.79;100.00
6134;BME280;3098;42.678;23.364;2023-11-22T05:18:36;94309.03;;;6.96;100.00
6134;BME280;3098;42.678;23.364;2023-11-22T05:21:03;94282.91;;;6.86;100.00
6134;BME280;3098;42.678;23.364;2023-11-22T05:23:31;94190.56;;;6.33;100.00
6134;BME280;3098;42.678;23.364;2023-11-22T05:25:59;94355.41;;;7.19;100.00
6134;BME280;3098;42.678;23.364;2023-11-22T05:28:30;94348.22;;;7.11;100.00
6134;BME280;3098;42.678;23.364;2023-11-22T05:31:27;94265.56;;;6.49;100.00
6134;BME280;3098;42.678;23.364;2023-11-22T05:33:57;94044.16;;;5.02;100.00
6134;BME280;3098;42.678;23.364;2023-11-22T05:36:26;94390.63;;;7.01;100.00
6134;BME280;3098;42.678;23.364;2023-11-22T05:38:53;94381.38;;;7.04;100.00
6134;BME280;3098;42.678;23.364;2023-11-22T05:41:21;94305.94;;;6.45;100.00
6134;BME280;3098;42.678;23.364;2023-11-22T05:43:49;94325.91;;;6.59;100.00
6134;BME280;3098;42.678;23.364;2023-11-22T05:46:19;94385.53;;;7.05;100.00
6134;BME280;3098;42.678;23.364;2023-11-22T05:48:49;94334.38;;;6.70;100.00
6134;BME280;3098;42.678;23.364;2023-11-22T05:51:19;94285.38;;;6.33;100.00
6134;BME280;3098;42.678;23.364;2023-11-22T05:53:48;94351.56;;;6.81;100.00
6134;BME280;3098;42.678;23.364;2023-11-22T05:56:19;94404.59;;;7.02;100.00
6134;BME280;3098;42.678;23.364;2023-11-22T05:58:57;94044.56;;;4.69;100.00
6134;BME280;3098;42.678;23.364;2023-11-22T06:01:27;94292.50;;;6.19;100.00
6134;BME280;3098;42.678;23.364;2023-11-22T06:03:54;94412.69;;;7.05;100.00
6134;BME280;3098;42.678;23.364;2023-11-22T06:06:23;94422.94;;;7.07;100.00
6134;BME280;3098;42.678;23.364;2023-11-22T06:08:51;94393.88;;;6.84;100.00
6134;BME280;3098;42.678;23.364;2023-11-22T06:11:20;94440.22;;;7.13;100.00
6134;BME280;3098;42.678;23.364;2023-11-22T06:13:47;94437.38;;;7.23;100.00
6134;BME280;3098;42.678;23.364;2023-11-22T06:16:15;94385.28;;;6.92;100.00
6134;BME280;3098;42.678;23.364;2023-11-22T06:18:45;94438.81;;;7.29;100.00
6134;BME280;3098;42.678;23.364;2023-11-22T06:21:12;94417.56;;;7.12;100.00
6134;BME280;3098;42.678;23.364;2023-11-22T06:23:40;94425.28;;;7.08;100.00
6134;BME280;3098;42.678;23.364;2023-11-22T06:26:08;94410.28;;;6.95;100.00
6134;BME280;3098;42.678;23.364;2023-11-22T06:28:35;94355.09;;;6.63;100.00
6134;BME280;3098;42.678;23.364;2023-11-22T06:31:03;94461.47;;;7.30;100.00
6134;BME280;3098;42.678;23.364;2023-11-22T06:33:31;94382.69;;;6.79;100.00
6134;BME280;3098;42.678;23.364;2023-11-22T06:36:00;94406.56;;;6.96;100.00
6134;BME280;3098;42.678;23.364;2023-11-22T06:38:30;94460.94;;;7.41;100.00
6134;BME280;3098;42.678;23.364;2023-11-22T06:41:01;94446.38;;;7.44;100.00
6134;BME280;3098;42.678;23.364;2023-11-22T06:43:29;94354.19;;;6.81;100.00
6134;BME280;3098;42.678;23.364;2023-11-22T06:45:57;94382.56;;;6.98;100.00
6134;BME280;3098;42.678;23.364;2023-11-22T06:48:25;94456.72;;;7.54;100.00
6134;BME280;3098;42.678;23.364;2023-11-22T06:50:53;94484.91;;;7.67;100.00
6134;BME280;3098;42.678;23.364;2023-11-22T06:53:22;94426.78;;;7.36;100.00
6134;BME280;3098;42.678;23.364;2023-11-22T06:55:51;94440.44;;;7.38;100.00
6134;BME280;3098;42.678;23.364;2023-11-22T06:58:18;94442.47;;;7.41;100.00
6134;BME280;3098;42.678;23.364;2023-11-22T07:00:46;94489.53;;;7.62;100.00
6134;BME280;3098;42.678;23.364;2023-11-22T07:03:18;94492.22;;;7.70;100.00
6134;BME280;3098;42.678;23.364;2023-11-22T07:05:46;94468.16;;;7.49;100.00
6134;BME280;3098;42.678;23.364;2023-11-22T07:08:16;94488.66;;;7.66;100.00
6134;BME280;3098;42.678;23.364;2023-11-22T07:10:47;94490.03;;;7.86;100.00
6134;BME280;3098;42.678;23.364;2023-11-22T07:13:16;94494.03;;;7.83;100.00
6134;BME280;3098;42.678;23.364;2023-11-22T07:15:44;94462.28;;;7.52;100.00
6134;BME280;3098;42.678;23.364;2023-11-22T07:18:12;94372.09;;;6.92;100.00
6134;BME280;3098;42.678;23.364;2023-11-22T07:20:39;94470.94;;;7.67;100.00
6134;BME280;3098;42.678;23.364;2023-11-22T07:23:08;94492.25;;;7.92;100.00
6134;BME280;3098;42.678;23.364;2023-11-22T07:25:39;94463.13;;;7.84;100.00
6134;BME280;3098;42.678;23.364;2023-11-22T07:28:08;94472.22;;;7.91;100.00
6134;BME280;3098;42.678;23.364;2023-11-22T07:30:35;94401.91;;;7.51;100.00
6134;BME280;3098;42.678;23.364;2023-11-22T07:33:06;94386.34;;;7.27;100.00
6134;BME280;3098;42.678;23.364;2023-11-22T07:35:34;94368.72;;;7.36;100.00
6134;BME280;3098;42.678;23.364;2023-11-22T07:38:01;94430.38;;;7.85;100.00
6134;BME280;3098;42.678;23.364;2023-11-22T07:40:29;94451.44;;;7.98;100.00
6134;BME280;3098;42.678;23.364;2023-11-22T07:43:00;94526.00;;;8.40;100.00
6134;BME280;3098;42.678;23.364;2023-11-22T07:45:32;94396.94;;;7.72;100.00
6134;BME280;3098;42.678;23.364;2023-11-22T07:47:59;94486.91;;;8.28;100.00
6134;BME280;3098;42.678;23.364;2023-11-22T07:50:29;94509.03;;;8.41;100.00
6134;BME280;3098;42.678;23.364;2023-11-22T07:53:01;94507.22;;;8.50;100.00
6134;BME280;3098;42.678;23.364;2023-11-22T07:55:35;94526.38;;;8.55;100.00
6134;BME280;3098;42.678;23.364;2023-11-22T07:58:12;94443.81;;;7.97;100.00
6134;BME280;3098;42.678;23.364;2023-11-22T08:00:43;94498.13;;;8.34;100.00
6134;BME280;3098;42.678;23.364;2023-11-22T08:03:12;94528.78;;;8.43;100.00
6134;BME280;3098;42.678;23.364;2023-11-22T08:05:44;94419.09;;;7.71;100.00
6134;BME280;3098;42.678;23.364;2023-11-22T08:08:14;94452.63;;;7.92;100.00
6134;BME280;3098;42.678;23.364;2023-11-22T08:10:46;94446.50;;;8.05;100.00
6134;BME280;3098;42.678;23.364;2023-11-22T08:13:15;94521.66;;;8.44;100.00
6134;BME280;3098;42.678;23.364;2023-11-22T08:15:48;94436.56;;;8.02;100.00
6134;BME280;3098;42.678;23.364;2023-11-22T08:18:16;94498.97;;;8.43;100.00
6134;BME280;3098;42.678;23.364;2023-11-22T08:20:45;94481.09;;;8.26;100.00
6134;BME280;3098;42.678;23.364;2023-11-22T08:23:12;94465.78;;;8.28;100.00
6134;BME280;3098;42.678;23.364;2023-11-22T08:25:40;94401.81;;;7.87;100.00
6134;BME280;3098;42.678;23.364;2023-11-22T08:28:09;94395.00;;;7.86;100.00
6134;BME280;3098;42.678;23.364;2023-11-22T08:30:38;94313.56;;;7.48;100.00
6134;BME280;3098;42.678;23.364;2023-11-22T08:33:09;94540.94;;;8.75;100.00
6134;BME280;3098;42.678;23.364;2023-11-22T08:35:37;94429.88;;;8.27;100.00
6134;BME280;3098;42.678;23.364;2023-11-22T08:38:04;94530.47;;;9.01;100.00
6134;BME280;3098;42.678;23.364;2023-11-22T08:40:35;94528.38;;;8.89;100.00
6134;BME280;3098;42.678;23.364;2023-11-22T08:43:03;94448.75;;;8.43;100.00
6134;BME280;3098;42.678;23.364;2023-11-22T08:45:30;94536.31;;;8.89;100.00
6134;BME280;3098;42.678;23.364;2023-11-22T08:47:58;94450.56;;;8.34;100.00
6134;BME280;3098;42.678;23.364;2023-11-22T08:50:27;94537.00;;;9.03;100.00
6134;BME280;3098;42.678;23.364;2023-11-22T08:52:54;94531.69;;;8.95;100.00
6134;BME280;3098;42.678;23.364;2023-11-22T08:55:24;94528.34;;;8.81;100.00
6134;BME280;3098;42.678;23.364;2023-11-22T08:57:52;94507.19;;;8.81;100.00
6134;BME280;3098;42.678;23.364;2023-11-22T09:00:23;94412.41;;;8.26;100.00
6134;BME280;3098;42.678;23.364;2023-11-22T09:02:56;94426.34;;;8.40;100.00
6134;BME280;3098;42.678;23.364;2023-11-22T09:05:24;94424.31;;;8.37;100.00
6134;BME280;3098;42.678;23.364;2023-11-22T09:07:59;94558.69;;;9.22;100.00
6134;BME280;3098;42.678;23.364;2023-11-22T09:10:32;94545.66;;;9.35;100.00
6134;BME280;3098;42.678;23.364;2023-11-22T09:13:01;94470.13;;;8.63;100.00
6134;BME280;3098;42.678;23.364;2023-11-22T09:15:31;94556.69;;;9.37;100.00
6134;BME280;3098;42.678;23.364;2023-11-22T09:17:59;94543.34;;;9.42;100.00
6134;BME280;3098;42.678;23.364;2023-11-22T09:20:31;94546.59;;;9.39;100.00
6134;BME280;3098;42.678;23.364;2023-11-22T09:23:02;94556.56;;;9.33;100.00
6134;BME280;3098;42.678;23.364;2023-11-22T09:25:30;94510.25;;;9.05;100.00
6134;BME280;3098;42.678;23.364;2023-11-22T09:28:01;94556.25;;;9.35;100.00
6134;BME280;3098;42.678;23.364;2023-11-22T09:30:30;94463.03;;;8.81;100.00
6134;BME280;3098;42.678;23.364;2023-11-22T09:33:04;94557.47;;;9.29;100.00
6134;BME280;3098;42.678;23.364;2023-11-22T09:35:32;94493.34;;;8.75;100.00
6134;BME280;3098;42.678;23.364;2023-11-22T09:38:04;94536.94;;;8.86;100.00
6134;BME280;3098;42.678;23.364;2023-11-22T09:40:34;94511.56;;;8.77;100.00
6134;BME280;3098;42.678;23.364;2023-11-22T09:43:02;94480.22;;;8.61;100.00
6134;BME280;3098;42.678;23.364;2023-11-22T09:45:31;94577.69;;;9.16;100.00
6134;BME280;3098;42.678;23.364;2023-11-22T09:48:03;94237.44;;;7.03;100.00
6134;BME280;3098;42.678;23.364;2023-11-22T09:50:39;94571.00;;;9.27;100.00
6134;BME280;3098;42.678;23.364;2023-11-22T09:53:11;94560.13;;;9.37;100.00
6134;BME280;3098;42.678;23.364;2023-11-22T09:55:41;94427.34;;;8.61;100.00
6134;BME280;3098;42.678;23.364;2023-11-22T09:58:11;94548.47;;;9.38;100.00
6134;BME280;3098;42.678;23.364;2023-11-22T10:00:40;94571.34;;;9.43;100.00
6134;BME280;3098;42.678;23.364;2023-11-22T10:03:09;94471.03;;;8.98;100.00
6134;BME280;3098;42.678;23.364;2023-11-22T10:05:39;94509.56;;;9.39;100.00
6134;BME280;3098;42.678;23.364;2023-11-22T10:08:11;94465.56;;;9.03;100.00
6134;BME280;3098;42.678;23.364;2023-11-22T10:10:38;94467.59;;;8.98;100.00
6134;BME280;3098;42.678;23.364;2023-11-22T10:13:09;94498.94;;;9.30;100.00
6134;BME280;3098;42.678;23.364;2023-11-22T10:15:38;94449.69;;;8.95;100.00
6134;BME280;3098;42.678;23.364;2023-11-22T10:18:06;94204.78;;;7.51;100.00
6134;BME280;3098;42.678;23.364;2023-11-22T10:20:40;94549.31;;;9.81;100.00
6134;BME280;3098;42.678;23.364;2023-11-22T10:23:14;94497.41;;;9.46;100.00
6134;BME280;3098;42.678;23.364;2023-11-22T10:25:44;94556.00;;;9.70;100.00
6134;BME280;3098;42.678;23.364;2023-11-22T10:28:15;94553.03;;;9.72;100.00
6134;BME280;3098;42.678;23.364;2023-11-22T10:30:43;94562.41;;;9.95;100.00
6134;BME280;3098;42.678;23.364;2023-11-22T10:33:10;94432.78;;;9.21;100.00
6134;BME280;3098;42.678;23.364;2023-11-22T10:35:42;94525.94;;;10.01;100.00
6134;BME280;3098;42.678;23.364;2023-11-22T10:38:14;94454.44;;;9.49;100.00
6134;BME280;3098;42.678;23.364;2023-11-22T10:40:42;94550.44;;;10.23;100.00
6134;BME280;3098;42.678;23.364;2023-11-22T10:43:12;94480.13;;;9.74;100.00
6134;BME280;3098;42.678;23.364;2023-11-22T10:45:40;94555.28;;;10.30;100.00
6134;BME280;3098;42.678;23.364;2023-11-22T10:48:12;94395.91;;;9.34;100.00
6134;BME280;3098;42.678;23.364;2023-11-22T10:50:41;94559.47;;;10.31;100.00
6134;BME280;3098;42.678;23.364;2023-11-22T10:53:12;94553.53;;;10.25;100.00
6134;BME280;3098;42.678;23.364;2023-11-22T10:55:45;94419.56;;;9.47;100.00
6134;BME280;3098;42.678;23.364;2023-11-22T10:58:14;94374.09;;;9.37;100.00
6134;BME280;3098;42.678;23.364;2023-11-22T11:00:43;94519.88;;;10.26;100.00
6134;BME280;3098;42.678;23.364;2023-11-22T11:03:14;94468.28;;;10.15;100.00
6134;BME280;3098;42.678;23.364;2023-11-22T11:05:59;94511.41;;;10.50;100.00
6134;BME280;3098;42.678;23.364;2023-11-22T11:08:30;94383.13;;;9.61;100.00
6134;BME280;3098;42.678;23.364;2023-11-22T11:11:02;94455.50;;;10.17;100.00
6134;BME280;3098;42.678;23.364;2023-11-22T11:13:32;94531.00;;;10.74;100.00
6134;BME280;3098;42.678;23.364;2023-11-22T11:16:00;94456.59;;;10.16;100.00
6134;BME280;3098;42.678;23.364;2023-11-22T11:18:28;94540.91;;;10.94;100.00
6134;BME280;3098;42.678;23.364;2023-11-22T11:20:57;94480.03;;;10.60;100.00
6134;BME280;3098;42.678;23.364;2023-11-22T11:23:25;94396.00;;;9.80;100.00
6134;BME280;3098;42.678;23.364;2023-11-22T11:25:54;94417.19;;;9.89;100.00
6134;BME280;3098;42.678;23.364;2023-11-22T11:28:25;94265.66;;;8.94;100.00
6134;BME280;3098;42.678;23.364;2023-11-22T11:30:56;94289.13;;;8.70;100.00
6134;BME280;3098;42.678;23.364;2023-11-22T11:33:28;94536.66;;;10.56;100.00
6134;BME280;3098;42.678;23.364;2023-11-22T11:36:03;94491.94;;;10.11;100.00
6134;BME280;3098;42.678;23.364;2023-11-22T11:38:31;94545.28;;;10.35;100.00
6134;BME280;3098;42.678;23.364;2023-11-22T11:41:06;94540.25;;;10.51;100.00
6134;BME280;3098;42.678;23.364;2023-11-22T11:43:45;94537.63;;;10.43;100.00
6134;BME280;3098;42.678;23.364;2023-11-22T11:46:13;94548.16;;;10.77;100.00
6134;BME280;3098;42.678;23.364;2023-11-22T11:48:44;94556.19;;;10.98;100.00
6134;BME280;3098;42.678;23.364;2023-11-22T11:51:14;94547.81;;;11.25;100.00
6134;BME280;3098;42.678;23.364;2023-11-22T11:53:45;94361.75;;;9.75;100.00
6134;BME280;3098;42.678;23.364;2023-11-22T11:56:13;94389.03;;;9.58;100.00
6134;BME280;3098;42.678;23.364;2023-11-22T11:58:45;94294.25;;;9.00;100.00
6134;BME280;3098;42.678;23.364;2023-11-22T12:01:14;94439.28;;;10.27;100.00
6134;BME280;3098;42.678;23.364;2023-11-22T12:03:42;94553.63;;;11.10;100.00
6134;BME280;3098;42.678;23.364;2023-11-22T12:06:14;94563.84;;;10.99;100.00
6134;BME280;3098;42.678;23.364;2023-11-22T12:08:42;94456.66;;;10.45;100.00
6134;BME280;3098;42.678;23.364;2023-11-22T12:11:10;94538.72;;;10.96;100.00
6134;BME280;3098;42.678;23.364;2023-11-22T12:13:39;94502.47;;;10.63;100.00
6134;BME280;3098;42.678;23.364;2023-11-22T12:16:16;94458.66;;;10.57;100.00
6134;BME280;3098;42.678;23.364;2023-11-22T12:18:45;94534.19;;;10.97;100.00
6134;BME280;3098;42.678;23.364;2023-11-22T12:21:14;94531.81;;;11.04;100.00
6134;BME280;3098;42.678;23.364;2023-11-22T12:23:44;94588.94;;;11.02;100.00
6134;BME280;3098;42.678;23.364;2023-11-22T12:26:14;94406.91;;;9.87;100.00
6134;BME280;3098;42.678;23.364;2023-11-22T12:28:46;94577.06;;;11.08;100.00
6134;BME280;3098;42.678;23.364;2023-11-22T12:31:15;94356.78;;;9.65;100.00
6134;BME280;3098;42.678;23.364;2023-11-22T12:33:43;94453.94;;;10.07;100.00
6134;BME280;3098;42.678;23.364;2023-11-22T12:36:15;94590.09;;;10.92;100.00
6134;BME280;3098;42.678;23.364;2023-11-22T12:38:43;94376.06;;;9.74;100.00
6134;BME280;3098;42.678;23.364;2023-11-22T12:41:11;94588.72;;;11.24;100.00
6134;BME280;3098;42.678;23.364;2023-11-22T12:43:44;94591.81;;;11.34;100.00
6134;BME280;3098;42.678;23.364;2023-11-22T12:46:45;94551.38;;;10.91;100.00
6134;BME280;3098;42.678;23.364;2023-11-22T12:49:16;94467.91;;;10.42;100.00
6134;BME280;3098;42.678;23.364;2023-11-22T12:51:48;94598.97;;;10.96;100.00
6134;BME280;3098;42.678;23.364;2023-11-22T12:54:16;94500.34;;;10.30;100.00
6134;BME280;3098;42.678;23.364;2023-11-22T12:56:47;94610.19;;;11.02;100.00
6134;BME280;3098;42.678;23.364;2023-11-22T12:59:15;94618.50;;;10.91;100.00
6134;BME280;3098;42.678;23.364;2023-11-22T13:01:45;94455.34;;;9.88;100.00
6134;BME280;3098;42.678;23.364;2023-11-22T13:04:13;94568.63;;;10.59;100.00
6134;BME280;3098;42.678;23.364;2023-11-22T13:06:41;94635.66;;;10.85;100.00
6134;BME280;3098;42.678;23.364;2023-11-22T13:09:11;94648.47;;;10.92;100.00
6134;BME280;3098;42.678;23.364;2023-11-22T13:11:41;94425.47;;;9.70;100.00
6134;BME280;3098;42.678;23.364;2023-11-22T13:14:09;94420.97;;;9.36;100.00
6134;BME280;3098;42.678;23.364;2023-11-22T13:16:39;94633.75;;;11.03;100.00
6134;BME280;3098;42.678;23.364;2023-11-22T13:19:08;94638.25;;;11.11;100.00
6134;BME280;3098;42.678;23.364;2023-11-22T13:21:36;94612.06;;;11.01;100.00